Time;durP1;ratioP1;P1;durP2;ratioP2;P2;SDS_P1;SDS_P2;PMS_P1;PMS_P2;Temp;Humidity;BMP_temperature;BMP_pressure;BME280_temperature;BME280_humidity;BME280_pressure;Samples;Min_cycle;Max_cycle;Signal;HPM_P1;HPM_P2
2021/10/27 00:00:37;;;;;;;11.40;5.50;;;;;;;9.29;41.99;99720.16;3383749;29;20045;-73
2021/10/27 00:02:18;;;;;;;8.70;3.88;;;;;;;9.29;41.99;99724.63;3381957;29;20040;-72
2021/10/27 00:03:58;;;;;;;5.03;3.70;;;;;;;9.27;41.91;99729.34;3382631;29;20643;-72
2021/10/27 00:05:40;;;;;;;6.57;4.28;;;;;;;9.24;41.88;99732.34;3383813;29;20052;-74
2021/10/27 00:07:21;;;;;;;10.55;4.82;;;;;;;9.23;42.01;99731.53;3386367;29;20173;-74
2021/10/27 00:09:03;;;;;;;9.23;4.65;;;;;;;9.22;42.15;99718.44;3382282;29;20046;-73
2021/10/27 00:10:45;;;;;;;8.32;4.53;;;;;;;9.23;42.19;99726.22;3383448;29;20708;-72
2021/10/27 00:12:26;;;;;;;8.82;4.68;;;;;;;9.26;42.28;99725.03;3382763;29;20040;-74
2021/10/27 00:14:07;;;;;;;8.52;4.15;;;;;;;9.29;42.33;99720.16;3380714;29;20179;-73
2021/10/27 00:15:48;;;;;;;8.43;4.60;;;;;;;9.31;42.28;99714.66;3381890;29;20036;-71
2021/10/27 00:17:29;;;;;;;9.43;4.55;;;;;;;9.31;42.35;99718.13;3379584;29;20067;-74
2021/10/27 00:19:10;;;;;;;6.97;4.22;;;;;;;9.34;42.35;99711.63;3383528;29;20086;-72
2021/10/27 00:20:53;;;;;;;8.77;4.80;;;;;;;9.39;42.41;99722.53;3383891;29;20036;-73
2021/10/27 00:22:35;;;;;;;5.28;4.07;;;;;;;9.41;42.29;99717.84;3377140;29;20481;-74
2021/10/27 00:24:17;;;;;;;10.45;3.97;;;;;;;9.41;42.45;99712.53;3380697;29;20078;-74
2021/10/27 00:25:59;;;;;;;8.63;4.95;;;;;;;9.40;42.31;99710.88;3382000;29;20062;-73
2021/10/27 00:27:41;;;;;;;7.30;4.30;;;;;;;9.38;42.38;99708.41;3382414;29;20040;-73
2021/10/27 00:29:22;;;;;;;8.90;4.20;;;;;;;9.39;42.41;99701.25;3381948;29;20044;-72
2021/10/27 00:31:02;;;;;;;9.55;3.97;;;;;;;9.42;42.42;99703.53;3382144;29;20411;-73
2021/10/27 00:32:44;;;;;;;7.65;4.55;;;;;;;9.45;42.33;99697.00;3382712;29;20111;-72
2021/10/27 00:34:28;;;;;;;7.22;5.35;;;;;;;9.46;42.45;99696.00;3381016;29;20629;-74
2021/10/27 00:36:11;;;;;;;7.60;4.57;;;;;;;9.50;42.45;99686.63;3381874;29;20040;-75
2021/10/27 00:37:52;;;;;;;9.45;4.70;;;;;;;9.51;42.27;99699.75;3380870;29;20066;-72
2021/10/27 00:39:36;;;;;;;6.30;3.97;;;;;;;9.51;42.33;99686.44;3382295;29;20048;-74
2021/10/27 00:41:17;;;;;;;6.18;4.18;;;;;;;9.52;42.31;99688.09;3381345;29;20040;-75
2021/10/27 00:42:59;;;;;;;10.15;4.13;;;;;;;9.55;42.21;99682.41;3379622;29;20076;-73
2021/10/27 00:44:42;;;;;;;6.95;5.03;;;;;;;9.55;42.04;99682.41;3381198;29;20752;-71
2021/10/27 00:46:25;;;;;;;11.10;4.88;;;;;;;9.58;42.45;99686.53;3381113;29;20044;-74
2021/10/27 00:48:06;;;;;;;7.40;4.25;;;;;;;9.60;42.51;99690.66;3375036;29;20141;-75
2021/10/27 00:49:48;;;;;;;7.45;4.07;;;;;;;9.56;42.37;99673.41;3374560;29;20433;-72
2021/10/27 00:51:29;;;;;;;10.13;5.00;;;;;;;9.60;42.45;99679.16;3375220;29;21918;-72
2021/10/27 00:53:11;;;;;;;7.82;4.20;;;;;;;9.56;42.58;99678.72;3375674;29;21042;-73
2021/10/27 00:54:52;;;;;;;5.78;4.25;;;;;;;9.56;42.15;99670.75;3377704;29;20047;-71
2021/10/27 00:56:33;;;;;;;7.18;4.63;;;;;;;9.53;42.30;99668.47;3380502;29;20036;-74
2021/10/27 00:58:14;;;;;;;5.55;4.15;;;;;;;9.54;42.39;99678.09;3370640;29;20056;-75
2021/10/27 00:59:56;;;;;;;7.45;5.18;;;;;;;9.52;42.51;99666.81;3376180;29;20512;-76
2021/10/27 01:01:36;;;;;;;;;;;;;;;9.67;42.06;99669.41;3384142;29;20099;-75
2021/10/27 01:03:17;;;;;;;7.43;3.72;;;;;;;9.56;42.13;99667.28;3388785;29;19922;-74
2021/10/27 01:04:58;;;;;;;8.77;5.32;;;;;;;9.54;42.11;99664.78;3389428;29;20503;-75
2021/10/27 01:06:38;;;;;;;8.15;4.50;;;;;;;9.53;42.18;99667.66;3386320;29;20040;-74
2021/10/27 01:08:19;;;;;;;7.50;4.32;;;;;;;9.52;42.29;99661.47;3379486;29;20036;-75
2021/10/27 01:10:00;;;;;;;8.93;5.15;;;;;;;9.51;42.20;99662.50;3376214;29;20044;-74
2021/10/27 01:11:41;;;;;;;7.57;4.63;;;;;;;9.52;42.39;99663.31;3377455;29;20040;-74
2021/10/27 01:13:21;;;;;;;13.30;4.72;;;;;;;9.51;42.40;99659.84;3373513;29;20633;-73
2021/10/27 01:15:03;;;;;;;8.00;4.32;;;;;;;9.49;42.36;99661.88;3373389;29;20059;-74
2021/10/27 01:16:47;;;;;;;;;;;;;;;9.57;42.05;99653.75;3381116;29;20159;-74
2021/10/27 01:18:28;;;;;;;11.15;4.10;;;;;;;9.45;42.25;99646.47;3380603;29;19933;-75
2021/10/27 01:20:09;;;;;;;6.82;4.57;;;;;;;9.43;42.23;99652.00;3372718;29;20046;-73
2021/10/27 01:21:50;;;;;;;5.70;4.45;;;;;;;9.41;42.45;99637.22;3385459;29;20047;-75
2021/10/27 01:23:30;;;;;;;14.68;4.38;;;;;;;9.38;42.37;99635.75;3381076;29;20039;-74
2021/10/27 01:25:12;;;;;;;8.20;4.70;;;;;;;9.36;42.49;99635.13;3384695;29;20520;-74
2021/10/27 01:26:52;;;;;;;6.75;4.63;;;;;;;9.41;42.59;99643.38;3386482;29;20060;-74
2021/10/27 01:28:43;;;;;;;8.93;4.65;;;;;;;9.44;42.74;99642.97;3378518;29;20050;-75
2021/10/27 01:30:24;;;;;;;6.25;4.38;;;;;;;9.46;42.80;99645.47;3385643;29;20040;-74
2021/10/27 01:32:08;;;;;;;7.72;5.50;;;;;;;9.48;42.83;99633.63;3389080;29;20044;-76
2021/10/27 01:33:49;;;;;;;7.80;4.65;;;;;;;9.51;42.55;99632.44;3385992;29;20105;-74
2021/10/27 01:35:30;;;;;;;10.95;4.65;;;;;;;9.54;42.51;99640.03;3387929;29;20036;-75
2021/10/27 01:37:10;;;;;;;7.72;4.70;;;;;;;9.52;42.51;99634.88;3388301;29;20135;-75
2021/10/27 01:38:51;;;;;;;10.05;5.22;;;;;;;9.52;42.55;99628.75;3386999;29;20036;-73
2021/10/27 01:40:32;;;;;;;7.40;4.57;;;;;;;9.47;42.52;99623.97;3385825;29;20412;-73
2021/10/27 01:42:13;;;;;;;8.93;4.88;;;;;;;9.50;42.50;99631.59;3388647;29;20504;-74
2021/10/27 01:43:55;;;;;;;11.13;5.05;;;;;;;9.44;42.49;99621.69;3388743;29;20102;-75
2021/10/27 01:45:36;;;;;;;9.00;4.63;;;;;;;9.47;42.73;99623.97;3387429;29;20064;-75
2021/10/27 01:47:17;;;;;;;8.98;5.13;;;;;;;9.45;42.78;99627.84;3383369;29;20096;-73
2021/10/27 01:48:58;;;;;;;11.45;4.50;;;;;;;9.43;42.62;99628.03;3379779;29;20072;-75
2021/10/27 01:50:39;;;;;;;8.02;4.93;;;;;;;9.43;42.87;99620.06;3384496;29;20107;-74
2021/10/27 01:52:20;;;;;;;9.48;5.20;;;;;;;9.39;42.45;99619.59;3388748;29;20408;-76
2021/10/27 01:54:01;;;;;;;8.73;4.95;;;;;;;9.37;42.57;99611.00;3387537;29;20076;-74
2021/10/27 01:55:42;;;;;;;8.57;4.82;;;;;;;9.35;42.79;99617.53;3387315;29;20424;-75
2021/10/27 01:57:23;;;;;;;9.68;5.32;;;;;;;9.33;42.87;99614.22;3388858;29;20098;-74
2021/10/27 01:59:04;;;;;;;6.15;4.38;;;;;;;9.30;42.93;99611.94;3383282;29;20040;-74
2021/10/27 02:00:44;;;;;;;9.25;4.90;;;;;;;9.30;42.91;99604.78;3382833;29;20572;-74
2021/10/27 02:02:25;;;;;;;13.27;5.10;;;;;;;9.33;42.80;99622.22;3388702;29;20040;-74
2021/10/27 02:04:06;;;;;;;8.30;4.80;;;;;;;9.30;42.94;99612.78;3388649;29;20055;-75
2021/10/27 02:05:47;;;;;;;8.38;5.10;;;;;;;9.31;42.97;99622.38;3386814;29;20051;-75
2021/10/27 02:07:28;;;;;;;10.50;5.47;;;;;;;9.31;43.02;99610.94;3379837;29;20044;-73
2021/10/27 02:09:09;;;;;;;10.73;4.85;;;;;;;9.30;43.19;99598.66;3401139;29;20051;-74
2021/10/27 02:10:49;;;;;;;5.43;4.20;;;;;;;9.35;43.07;99609.56;3389977;29;20075;-74
2021/10/27 02:12:30;;;;;;;9.15;4.47;;;;;;;9.31;43.00;99602.94;3388662;29;20040;-74
2021/10/27 02:14:11;;;;;;;9.30;4.57;;;;;;;9.35;43.02;99613.03;3386307;29;20055;-73
2021/10/27 02:15:52;;;;;;;10.20;4.82;;;;;;;9.33;43.11;99614.22;3388055;29;20416;-72
2021/10/27 02:17:33;;;;;;;8.48;4.63;;;;;;;9.32;42.93;99607.25;3384409;29;20040;-75
2021/10/27 02:19:13;;;;;;;7.78;4.68;;;;;;;9.32;43.03;99599.25;3385154;29;20036;-73
2021/10/27 02:20:54;;;;;;;8.85;4.22;;;;;;;9.30;43.12;99596.81;3378344;29;20076;-73
2021/10/27 02:22:37;;;;;;;9.30;4.78;;;;;;;9.32;43.07;99597.44;3388182;29;20510;-72
2021/10/27 02:24:18;;;;;;;5.93;3.95;;;;;;;9.30;42.98;99598.66;3388553;29;20048;-73
2021/10/27 02:25:59;;;;;;;9.48;5.05;;;;;;;9.24;42.94;99596.72;3387365;29;20047;-73
2021/10/27 02:27:40;;;;;;;7.30;4.60;;;;;;;9.22;43.16;99590.78;3387854;29;20048;-74
2021/10/27 02:29:20;;;;;;;10.25;4.70;;;;;;;9.18;43.28;99595.66;3388675;29;20115;-74
2021/10/27 02:31:02;;;;;;;7.18;5.18;;;;;;;9.15;43.24;99586.22;3383428;29;20103;-71
2021/10/27 02:32:42;;;;;;;10.00;5.00;;;;;;;9.07;43.30;99578.34;3388974;29;20135;-74
2021/10/27 02:34:23;;;;;;;6.45;3.97;;;;;;;9.16;43.40;99592.34;3386917;29;20036;-74
2021/10/27 02:36:04;;;;;;;7.88;4.35;;;;;;;9.19;43.41;99592.00;3375468;29;20420;-73
2021/10/27 02:37:45;;;;;;;8.70;4.50;;;;;;;9.20;43.65;99590.16;3375376;29;20092;-75
2021/10/27 02:39:26;;;;;;;9.48;4.75;;;;;;;9.17;43.64;99591.34;3388167;29;20040;-73
2021/10/27 02:41:06;;;;;;;7.45;4.38;;;;;;;9.14;43.56;99589.91;3383002;29;20126;-74
2021/10/27 02:42:50;;;;;;;8.93;4.35;;;;;;;8.90;43.51;99547.69;3386675;29;20044;-73
2021/10/27 02:44:31;;;;;;;9.15;4.88;;;;;;;9.11;43.46;99586.78;3388025;29;20050;-74
2021/10/27 02:46:12;;;;;;;9.00;4.45;;;;;;;9.11;43.65;99584.97;3388176;29;20153;-73
2021/10/27 02:47:53;;;;;;;7.50;5.13;;;;;;;9.03;43.64;99569.09;3378454;29;20088;-74
2021/10/27 02:49:33;;;;;;;7.22;4.18;;;;;;;9.03;43.63;99565.63;3395432;29;20791;-74
2021/10/27 02:51:14;;;;;;;8.00;4.60;;;;;;;9.02;43.66;99570.13;3387101;29;20041;-74
2021/10/27 02:52:55;;;;;;;7.78;5.20;;;;;;;9.04;43.66;99573.41;3374840;29;20512;-73
2021/10/27 02:54:35;;;;;;;7.50;4.53;;;;;;;8.97;43.81;99563.72;3381842;29;20131;-73
2021/10/27 02:56:16;;;;;;;10.23;4.35;;;;;;;8.98;43.92;99563.50;3388169;29;20075;-73
2021/10/27 02:58:00;;;;;;;8.77;4.10;;;;;;;8.97;43.74;99567.19;3387930;29;20130;-72
2021/10/27 02:59:41;;;;;;;6.80;3.67;;;;;;;8.94;44.02;99572.88;3387345;29;20499;-73
2021/10/27 03:01:21;;;;;;;5.93;4.50;;;;;;;8.91;43.79;99567.94;3386389;29;20051;-74
2021/10/27 03:03:02;;;;;;;10.82;5.78;;;;;;;8.87;44.05;99564.00;3384072;29;20114;-73
2021/10/27 03:04:43;;;;;;;13.88;5.28;;;;;;;8.78;44.05;99543.84;3387042;29;20044;-74
2021/10/27 03:06:24;;;;;;;6.20;3.70;;;;;;;8.88;44.07;99557.66;3386722;29;20036;-74
2021/10/27 03:08:05;;;;;;;12.93;4.40;;;;;;;8.75;44.23;99537.06;3388065;29;20156;-74
2021/10/27 03:09:45;;;;;;;5.47;3.50;;;;;;;8.89;44.27;99554.84;3387173;29;20078;-73
2021/10/27 03:11:26;;;;;;;7.25;3.70;;;;;;;8.89;44.39;99548.72;3387446;29;20456;-73
2021/10/27 03:13:07;;;;;;;12.95;4.68;;;;;;;8.72;44.25;99538.31;3384285;29;20089;-74
2021/10/27 03:14:47;;;;;;;8.82;4.22;;;;;;;8.83;44.50;99549.44;3388120;29;20076;-74
2021/10/27 03:16:28;;;;;;;8.30;4.53;;;;;;;8.81;44.42;99546.16;3386250;29;20871;-74
2021/10/27 03:18:09;;;;;;;9.70;3.92;;;;;;;8.81;44.33;99546.16;3378347;29;20055;-73
2021/10/27 03:19:49;;;;;;;10.63;4.35;;;;;;;8.80;44.44;99541.84;3387869;29;20493;-75
2021/10/27 03:21:30;;;;;;;15.02;4.53;;;;;;;8.81;44.51;99543.50;3387992;29;20135;-75
2021/10/27 03:23:11;;;;;;;5.57;4.60;;;;;;;8.80;44.59;99537.34;3384328;29;20123;-73
2021/10/27 03:24:51;;;;;;;8.50;4.30;;;;;;;8.77;44.54;99524.44;3388130;29;20048;-73
2021/10/27 03:26:32;;;;;;;8.73;5.00;;;;;;;8.79;44.45;99533.06;3389111;29;20142;-73
2021/10/27 03:28:13;;;;;;;8.27;4.68;;;;;;;8.79;44.77;99526.91;3388616;29;20119;-73
2021/10/27 03:29:54;;;;;;;7.65;4.32;;;;;;;8.76;44.48;99528.13;3389275;29;20541;-73
2021/10/27 03:31:35;;;;;;;7.93;4.32;;;;;;;8.74;44.77;99520.31;3390463;29;20050;-74
2021/10/27 03:33:16;;;;;;;8.40;4.73;;;;;;;8.71;44.86;99514.56;3387262;29;20047;-74
2021/10/27 03:34:56;;;;;;;9.88;5.25;;;;;;;8.72;44.70;99511.75;3388449;29;20854;-73
2021/10/27 03:36:37;;;;;;;11.18;4.22;;;;;;;8.69;44.82;99512.09;3388375;29;20052;-74
2021/10/27 03:38:18;;;;;;;10.10;4.32;;;;;;;8.65;44.88;99502.84;3389427;29;20103;-74
2021/10/27 03:39:58;;;;;;;11.27;5.13;;;;;;;8.66;45.05;99509.81;3387999;29;20132;-73
2021/10/27 03:41:39;;;;;;;7.30;4.88;;;;;;;8.65;45.19;99505.50;3389749;29;20538;-76
2021/10/27 03:43:20;;;;;;;10.60;4.07;;;;;;;8.66;45.08;99507.16;3382921;29;20044;-72
2021/10/27 03:45:01;;;;;;;10.40;5.57;;;;;;;8.66;45.06;99509.81;3379810;29;20048;-73
2021/10/27 03:46:41;;;;;;;8.93;4.68;;;;;;;8.66;44.91;99507.16;3388846;29;20044;-74
2021/10/27 03:48:22;;;;;;;6.65;4.55;;;;;;;8.64;45.11;99497.72;3390083;29;20044;-73
2021/10/27 03:50:04;;;;;;;9.48;4.40;;;;;;;8.63;44.85;99502.22;3390233;29;20520;-74
2021/10/27 03:51:45;;;;;;;;;;;;;;;8.75;44.83;99510.50;3389477;29;20114;-74
2021/10/27 03:53:26;;;;;;;7.07;5.07;;;;;;;8.65;44.89;99508.16;3389427;29;19970;-74
2021/10/27 03:55:07;;;;;;;6.28;4.90;;;;;;;8.63;44.96;99499.56;3389794;29;20139;-74
2021/10/27 03:56:47;;;;;;;6.30;4.10;;;;;;;8.58;45.28;99504.59;3386788;29;20039;-75
2021/10/27 03:58:30;;;;;;;12.05;4.50;;;;;;;8.56;45.32;99495.19;3389107;29;20070;-75
2021/10/27 04:00:12;;;;;;;12.15;5.13;;;;;;;8.55;45.41;99486.38;3388440;29;20135;-73
2021/10/27 04:01:53;;;;;;;9.15;4.75;;;;;;;8.56;45.33;99490.69;3388188;29;20516;-74
2021/10/27 04:03:34;;;;;;;6.95;5.35;;;;;;;8.56;45.40;99496.00;3387098;29;20036;-75
2021/10/27 04:05:15;;;;;;;7.97;4.63;;;;;;;8.58;45.55;99483.34;3388333;29;20040;-74
2021/10/27 04:06:55;;;;;;;7.35;4.57;;;;;;;8.60;45.70;99491.97;3389839;29;20468;-74
2021/10/27 04:08:36;;;;;;;9.80;5.50;;;;;;;8.59;45.49;99492.97;3388950;29;20043;-75
2021/10/27 04:10:16;;;;;;;10.05;5.03;;;;;;;8.56;45.54;99479.25;3389709;29;20607;-74
2021/10/27 04:11:57;;;;;;;5.90;4.25;;;;;;;8.59;45.74;99492.97;3388534;29;20044;-75
2021/10/27 04:13:38;;;;;;;14.82;4.38;;;;;;;8.58;45.70;99486.00;3383457;29;20156;-75
2021/10/27 04:15:19;;;;;;;8.05;4.72;;;;;;;8.56;45.72;99484.56;3390239;29;20075;-76
2021/10/27 04:17:00;;;;;;;12.68;4.88;;;;;;;8.59;45.79;99497.44;3390714;29;20059;-76
2021/10/27 04:18:40;;;;;;;8.70;5.40;;;;;;;8.58;45.79;99487.84;3390468;29;20044;-74
2021/10/27 04:20:21;;;;;;;13.15;5.13;;;;;;;8.57;45.80;99484.38;3391668;29;20043;-75
2021/10/27 04:22:02;;;;;;;9.93;5.28;;;;;;;8.56;45.93;99485.38;3391666;29;20063;-76
2021/10/27 04:23:43;;;;;;;6.35;4.72;;;;;;;8.58;45.91;99482.53;3388394;29;20655;-76
2021/10/27 04:25:23;;;;;;;10.23;4.82;;;;;;;8.59;45.84;99498.28;3392034;29;20044;-74
2021/10/27 04:27:05;;;;;;;10.55;4.85;;;;;;;8.58;45.85;99477.22;3392191;29;20051;-75
2021/10/27 04:28:46;;;;;;;7.65;5.25;;;;;;;8.60;45.97;99486.66;3391118;29;20044;-74
2021/10/27 04:30:27;;;;;;;7.82;4.75;;;;;;;8.62;45.97;99489.09;3387039;29;20457;-74
2021/10/27 04:32:07;;;;;;;12.50;5.18;;;;;;;8.62;45.80;99497.06;3391219;29;20067;-74
2021/10/27 04:33:49;;;;;;;10.52;5.32;;;;;;;8.62;45.87;99486.44;3385322;29;20040;-73
2021/10/27 04:35:30;;;;;;;8.57;5.25;;;;;;;8.61;45.88;99488.28;3375736;29;20047;-74
2021/10/27 04:37:11;;;;;;;9.98;5.65;;;;;;;8.62;45.96;99484.63;3376299;29;20036;-76
2021/10/27 04:38:51;;;;;;;11.50;5.22;;;;;;;8.59;45.79;99482.34;3388530;29;20076;-77
2021/10/27 04:40:32;;;;;;;10.43;5.50;;;;;;;8.64;46.10;99487.91;3389627;29;20119;-75
2021/10/27 04:42:13;;;;;;;8.77;4.78;;;;;;;8.65;45.88;99488.75;3388785;29;20048;-74
2021/10/27 04:43:54;;;;;;;11.60;5.38;;;;;;;8.63;46.00;99483.63;3384453;29;20415;-75
2021/10/27 04:45:35;;;;;;;11.93;5.15;;;;;;;8.66;45.62;99475.28;3382961;29;20048;-76
2021/10/27 04:47:16;;;;;;;8.10;4.95;;;;;;;8.64;45.90;99481.78;3389423;29;20040;-76
2021/10/27 04:48:56;;;;;;;8.75;5.60;;;;;;;8.68;45.85;99478.56;3388518;29;20491;-76
2021/10/27 04:50:37;;;;;;;7.65;4.95;;;;;;;8.69;45.94;99480.19;3384939;29;20385;-75
2021/10/27 04:52:18;;;;;;;20.10;5.75;;;;;;;8.69;45.83;99480.19;3388706;29;20040;-76
2021/10/27 04:53:58;;;;;;;7.20;4.85;;;;;;;8.65;45.91;99473.63;3375889;29;20088;-75
2021/10/27 04:55:39;;;;;;;8.60;4.63;;;;;;;8.66;45.73;99475.28;3378848;29;20040;-73
2021/10/27 04:57:20;;;;;;;6.38;4.43;;;;;;;8.66;45.91;99479.75;3376194;29;20111;-76
2021/10/27 04:59:01;;;;;;;11.40;5.10;;;;;;;8.65;45.72;99484.25;3375186;29;20044;-76
2021/10/27 05:00:42;;;;;;;8.23;4.80;;;;;;;8.63;45.82;99473.00;3376263;29;20036;-75
2021/10/27 05:02:23;;;;;;;8.15;5.28;;;;;;;8.67;45.96;99476.94;3375697;29;20520;-74
2021/10/27 05:04:05;;;;;;;7.85;5.15;;;;;;;8.67;45.99;99471.63;3361675;29;20144;-76
2021/10/27 05:05:49;;;;;;;9.45;5.13;;;;;;;8.73;46.00;99484.16;3369432;29;20100;-77
2021/10/27 05:07:30;;;;;;;13.68;5.38;;;;;;;8.74;45.89;99480.47;3386028;29;20048;-75
2021/10/27 05:09:11;;;;;;;8.98;5.10;;;;;;;8.75;45.90;99483.94;3388042;29;20044;-76
2021/10/27 05:10:54;;;;;;;8.20;5.20;;;;;;;8.77;45.98;99489.06;3389134;29;20560;-75
2021/10/27 05:12:39;;;;;;;9.50;6.32;;;;;;;8.73;46.12;99481.50;3388179;29;20059;-75
2021/10/27 05:14:20;;;;;;;8.07;5.22;;;;;;;8.71;45.87;99491.47;3385991;29;20124;-74
2021/10/27 05:16:01;;;;;;;10.93;6.00;;;;;;;8.69;45.99;99482.84;3380550;29;20041;-76
2021/10/27 05:17:42;;;;;;;10.75;5.40;;;;;;;8.71;45.93;99488.00;3387897;29;20106;-74
2021/10/27 05:19:23;;;;;;;10.18;5.65;;;;;;;8.71;46.09;99488.81;3388853;29;20100;-74
2021/10/27 05:21:05;;;;;;;10.30;5.47;;;;;;;8.77;46.14;99489.06;3387555;29;20044;-75
2021/10/27 05:22:46;;;;;;;7.68;5.18;;;;;;;8.77;46.01;99475.78;3376425;29;20299;-75
2021/10/27 05:24:27;;;;;;;8.27;5.18;;;;;;;8.84;45.87;99487.31;3375761;29;20136;-77
2021/10/27 05:26:08;;;;;;;10.65;6.05;;;;;;;8.87;46.20;99489.59;3378091;29;20397;-74
2021/10/27 05:27:48;;;;;;;9.15;5.40;;;;;;;8.88;46.01;99483.25;3389709;29;20117;-75
2021/10/27 05:29:29;;;;;;;7.07;5.70;;;;;;;8.85;46.10;99470.34;3389427;29;20044;-75
2021/10/27 05:31:11;;;;;;;7.80;5.70;;;;;;;8.90;45.75;99484.72;3369972;29;20044;-74
2021/10/27 05:32:56;;;;;;;11.65;6.03;;;;;;;8.96;45.89;99488.47;3385323;29;20130;-75
2021/10/27 05:34:38;;;;;;;12.10;6.15;;;;;;;8.97;45.78;99481.31;3387881;29;20055;-75
2021/10/27 05:36:19;;;;;;;12.73;5.97;;;;;;;8.99;45.74;99485.44;3381238;29;20044;-74
2021/10/27 05:38:01;;;;;;;10.57;6.15;;;;;;;8.99;45.65;99474.81;3388920;29;20082;-75
2021/10/27 05:39:42;;;;;;;16.27;6.10;;;;;;;8.99;45.75;99477.47;3391005;29;20040;-77
2021/10/27 05:41:23;;;;;;;11.40;5.90;;;;;;;8.98;45.78;99478.47;3390066;29;20135;-76
2021/10/27 05:43:10;;;;;;;9.02;5.93;;;;;;;8.99;45.61;99479.31;3374809;29;20056;-77
2021/10/27 05:44:51;;;;;;;8.50;5.50;;;;;;;8.98;45.75;99473.13;3384428;29;20040;-75
2021/10/27 05:46:33;;;;;;;9.68;5.85;;;;;;;8.99;45.70;99477.47;3382831;29;20048;-74
2021/10/27 05:48:17;;;;;;;20.83;5.88;;;;;;;9.01;45.92;99475.44;3388459;29;20056;-75
2021/10/27 05:50:42;;;;;;;13.75;6.30;;;;;;;9.01;45.77;99472.78;3389855;29;20136;-75
2021/10/27 05:55:52;;;;;;;11.90;5.90;;;;;;;9.15;45.67;99479.84;3371998;29;20047;-77
2021/10/27 05:57:39;;;;;;;8.23;6.05;;;;;;;9.17;45.58;99474.38;3375301;29;20416;-74
2021/10/27 05:59:20;;;;;;;9.63;5.60;;;;;;;9.12;45.66;99466.94;3386751;29;20528;-76
2021/10/27 06:01:01;;;;;;;8.18;5.35;;;;;;;9.13;45.51;99476.56;3376732;29;20062;-76
2021/10/27 06:02:41;;;;;;;9.93;6.30;;;;;;;9.16;45.78;99476.22;3380971;29;20052;-75
2021/10/27 06:04:22;;;;;;;8.18;5.57;;;;;;;9.18;45.84;99471.50;3384698;29;20579;-73
2021/10/27 06:06:03;;;;;;;15.15;5.57;;;;;;;9.22;45.55;99473.78;3382001;29;20044;-74
2021/10/27 06:07:44;;;;;;;12.23;6.50;;;;;;;9.25;45.62;99462.78;3381945;29;20583;-74
2021/10/27 06:09:25;;;;;;;10.32;5.75;;;;;;;9.27;45.51;99458.09;3377319;29;20051;-74
2021/10/27 06:11:09;;;;;;;10.23;6.10;;;;;;;9.25;45.54;99447.63;3382534;29;20500;-75
2021/10/27 06:12:52;;;;;;;11.80;6.53;;;;;;;9.29;45.43;99451.56;3379355;29;20044;-75
2021/10/27 06:14:35;;;;;;;8.75;5.53;;;;;;;9.33;45.49;99449.34;3376829;29;20127;-72
2021/10/27 06:16:16;;;;;;;10.02;5.45;;;;;;;9.35;45.38;99445.47;3372210;29;20119;-76
2021/10/27 06:17:59;;;;;;;;;;;;;;;9.46;45.20;99444.13;3386621;29;20079;-74
2021/10/27 06:19:42;;;;;;;9.73;6.05;;;;;;;9.40;45.33;99447.56;3383639;29;19927;-74
2021/10/27 06:21:23;;;;;;;16.17;6.57;;;;;;;9.40;45.50;99442.25;3381653;29;20575;-74
2021/10/27 06:23:03;;;;;;;11.82;5.45;;;;;;;9.41;45.54;99440.41;3383962;29;20047;-75
2021/10/27 06:24:46;;;;;;;7.90;6.07;;;;;;;9.38;45.59;99430.97;3374805;29;20055;-74
2021/10/27 06:26:29;;;;;;;10.98;5.80;;;;;;;9.42;45.54;99432.19;3375244;29;20067;-73
2021/10/27 06:28:15;;;;;;;13.43;6.30;;;;;;;9.43;45.55;99433.06;3383443;29;20043;-73
2021/10/27 06:30:04;;;;;;;10.65;5.75;;;;;;;9.44;45.56;99443.47;3384993;29;20075;-73
2021/10/27 06:31:53;;;;;;;9.45;6.10;;;;;;;9.42;45.40;99437.53;3393225;29;20093;-74
2021/10/27 06:34:26;;;;;;;10.25;6.00;;;;;;;9.45;45.28;99438.97;3386786;29;20044;-73
2021/10/27 06:35:43;;;;;;;11.00;6.32;;;;;;;9.46;45.36;99432.66;3387461;29;20062;-74
2021/10/27 06:37:37;;;;;;;;;;;;;;;9.54;45.17;99435.16;3383963;29;20056;-73
2021/10/27 06:47:26;;;;;;;11.80;6.47;;;;;;;9.56;45.46;99439.28;3380780;29;20385;-75
2021/10/27 06:49:07;;;;;;;11.30;6.00;;;;;;;9.59;45.37;99444.19;3382659;29;20427;-75
2021/10/27 06:50:49;;;;;;;10.88;6.35;;;;;;;9.60;45.60;99440.53;3376141;29;20104;-75
2021/10/27 06:52:30;;;;;;;13.43;6.53;;;;;;;9.63;45.55;99434.00;3380932;29;20055;-77
2021/10/27 06:54:11;;;;;;;12.80;7.22;;;;;;;9.68;45.55;99420.09;3385555;29;20504;-75
2021/10/27 06:55:53;;;;;;;10.75;5.85;;;;;;;9.73;45.43;99420.34;3387661;29;20131;-74
2021/10/27 06:57:36;;;;;;;12.43;6.57;;;;;;;9.76;45.44;99418.13;3376422;29;20095;-75
2021/10/27 06:59:30;;;;;;;21.23;6.70;;;;;;;9.81;45.54;99409.56;3383591;29;20040;-75
2021/10/27 07:01:20;;;;;;;12.02;6.32;;;;;;;9.81;45.36;99421.03;3389364;29;20544;-76
2021/10/27 07:03:22;;;;;;;16.40;6.60;;;;;;;9.80;45.22;99419.34;3383032;29;20634;-75
2021/10/27 07:16:54;;;;;;;12.60;6.43;;;;;;;9.86;45.55;99411.59;3382848;29;20508;-76
2021/10/27 07:18:37;;;;;;;12.60;6.82;;;;;;;9.85;45.42;99399.31;3382181;29;20048;-73
2021/10/27 07:20:25;;;;;;;12.85;6.65;;;;;;;9.86;45.24;99414.28;3384530;29;20420;-76
2021/10/27 07:22:08;;;;;;;12.85;7.35;;;;;;;9.83;45.36;99408.34;3375330;29;20542;-76
2021/10/27 07:23:49;;;;;;;11.80;6.72;;;;;;;9.85;45.53;99399.31;3365983;29;20048;-76
2021/10/27 07:25:36;;;;;;;10.07;6.43;;;;;;;9.85;45.36;99402.81;3378025;29;20048;-73
2021/10/27 07:27:19;;;;;;;10.52;6.50;;;;;;;9.83;45.42;99394.19;3388963;29;20146;-76
2021/10/27 07:29:03;;;;;;;11.18;6.80;;;;;;;9.81;45.43;99389.09;3382703;29;20056;-76
2021/10/27 07:30:45;;;;;;;11.88;6.35;;;;;;;9.88;45.68;99399.75;3388073;29;20084;-75
2021/10/27 07:32:29;;;;;;;11.68;6.15;;;;;;;9.92;45.61;99400.19;3396575;29;20050;-77
2021/10/27 07:34:12;;;;;;;10.13;6.07;;;;;;;10.01;45.59;99399.81;3391741;29;20123;-76
2021/10/27 07:40:33;;;;;;;15.30;7.38;;;;;;;10.10;45.53;99400.47;3388058;29;20048;-74
2021/10/27 07:42:08;;;;;;;9.38;6.63;;;;;;;10.10;45.34;99389.00;3379985;29;20238;-74
2021/10/27 07:43:49;;;;;;;9.35;6.55;;;;;;;10.05;45.35;99389.59;3389077;29;20412;-74
2021/10/27 07:45:31;;;;;;;13.30;7.05;;;;;;;10.05;45.63;99385.09;3385954;29;20079;-74
2021/10/27 07:47:13;;;;;;;14.88;7.50;;;;;;;10.05;45.49;99385.09;3387698;29;20147;-72
2021/10/27 07:48:54;;;;;;;15.90;7.00;;;;;;;10.04;45.30;99374.63;3389501;29;20052;-71
2021/10/27 07:50:37;;;;;;;16.23;7.03;;;;;;;10.07;45.69;99376.06;3381065;29;20040;-72
2021/10/27 07:52:17;;;;;;;13.13;7.13;;;;;;;10.05;45.95;99373.63;3375576;29;20607;-73
2021/10/27 07:53:58;;;;;;;16.67;7.57;;;;;;;10.05;45.79;99384.28;3376133;29;20037;-73
2021/10/27 07:55:44;;;;;;;12.00;7.22;;;;;;;10.05;45.89;99382.44;3380575;29;20548;-70
2021/10/27 07:57:25;;;;;;;11.80;7.43;;;;;;;10.04;45.85;99375.47;3383968;29;20047;-71
2021/10/27 07:59:05;;;;;;;12.02;6.97;;;;;;;10.02;45.70;99374.84;3389573;29;20507;-69
2021/10/27 08:00:47;;;;;;;15.77;7.78;;;;;;;10.03;45.87;99373.00;3380479;29;20052;-71
2021/10/27 08:02:28;;;;;;;;;;;;;;;10.14;45.39;99376.91;3384612;29;20088;-69
2021/10/27 08:04:09;;;;;;;17.17;6.78;;;;;;;10.05;45.68;99369.13;3380300;29;19979;-71
2021/10/27 08:05:50;;;;;;;14.80;7.07;;;;;;;10.03;45.95;99373.81;3376862;29;20044;-71
2021/10/27 08:07:31;;;;;;;15.40;7.75;;;;;;;10.01;46.14;99370.50;3376515;29;20103;-70
2021/10/27 08:09:15;;;;;;;13.05;8.48;;;;;;;9.98;46.17;99362.94;3382402;29;20049;-71
2021/10/27 08:10:55;;;;;;;21.95;8.50;;;;;;;9.98;46.12;99367.44;3389529;29;20040;-70
2021/10/27 08:12:36;;;;;;;13.43;7.90;;;;;;;9.98;46.05;99376.25;3385558;29;20381;-71
2021/10/27 08:14:17;;;;;;;13.95;7.53;;;;;;;10.00;46.31;99376.06;3384066;29;20572;-69
2021/10/27 08:15:58;;;;;;;14.35;8.23;;;;;;;10.02;46.14;99374.03;3386554;29;20416;-70
2021/10/27 08:17:39;;;;;;;11.63;7.25;;;;;;;10.04;46.02;99377.28;3386057;29;20060;-69
2021/10/27 08:19:20;;;;;;;15.55;8.75;;;;;;;10.04;46.17;99370.16;3376438;29;20052;-72
2021/10/27 08:21:02;;;;;;;17.98;7.68;;;;;;;10.08;46.06;99367.09;3376748;29;20036;-72
2021/10/27 08:22:45;;;;;;;12.77;8.23;;;;;;;10.13;46.23;99364.63;3349225;29;20049;-69
2021/10/27 08:24:26;;;;;;;16.00;8.75;;;;;;;10.15;46.31;99367.94;3384551;29;20126;-70
2021/10/27 08:26:12;;;;;;;17.17;9.35;;;;;;;10.16;46.26;99364.22;3389192;29;21663;-71
2021/10/27 08:27:55;;;;;;;14.88;8.65;;;;;;;10.19;46.23;99363.84;3387341;29;20048;-70
2021/10/27 08:29:40;;;;;;;14.38;7.38;;;;;;;10.19;46.01;99364.66;3384431;29;20063;-71
2021/10/27 08:33:20;;;;;;;15.80;7.50;;;;;;;10.20;46.08;99358.31;3386746;29;20512;-72